sensor_id;sensor_type;location;lat;lon;timestamp;P1;durP1;ratioP1;P2;durP2;ratioP2
55647;SDS011;45266;48.756;9.246;2023-07-31T00:00:14;6.40;;;2.25;;
55647;SDS011;45266;48.756;9.246;2023-07-31T00:01:19;3.17;;;2.00;;
55647;SDS011;45266;48.756;9.246;2023-07-31T00:02:26;2.42;;;1.92;;
55647;SDS011;45266;48.756;9.246;2023-07-31T00:03:32;5.45;;;1.80;;
55647;SDS011;45266;48.756;9.246;2023-07-31T00:04:37;3.58;;;2.17;;
55647;SDS011;45266;48.756;9.246;2023-07-31T00:05:44;4.50;;;1.80;;
55647;SDS011;45266;48.756;9.246;2023-07-31T00:06:49;2.88;;;2.10;;
55647;SDS011;45266;48.756;9.246;2023-07-31T00:07:54;4.03;;;2.38;;
55647;SDS011;45266;48.756;9.246;2023-07-31T00:08:58;3.58;;;2.00;;
55647;SDS011;45266;48.756;9.246;2023-07-31T00:10:07;3.90;;;2.10;;
55647;SDS011;45266;48.756;9.246;2023-07-31T00:11:15;3.08;;;2.00;;
55647;SDS011;45266;48.756;9.246;2023-07-31T00:12:16;4.25;;;2.00;;
55647;SDS011;45266;48.756;9.246;2023-07-31T00:13:19;2.45;;;1.80;;
55647;SDS011;45266;48.756;9.246;2023-07-31T00:14:21;3.13;;;1.95;;
55647;SDS011;45266;48.756;9.246;2023-07-31T00:15:24;6.38;;;2.33;;
55647;SDS011;45266;48.756;9.246;2023-07-31T00:16:27;5.13;;;2.05;;
55647;SDS011;45266;48.756;9.246;2023-07-31T00:17:32;6.13;;;2.20;;
55647;SDS011;45266;48.756;9.246;2023-07-31T00:18:35;3.97;;;1.70;;
55647;SDS011;45266;48.756;9.246;2023-07-31T00:19:37;4.25;;;2.17;;
55647;SDS011;45266;48.756;9.246;2023-07-31T00:20:40;7.03;;;2.03;;
55647;SDS011;45266;48.756;9.246;2023-07-31T00:21:45;7.05;;;2.20;;
55647;SDS011;45266;48.756;9.246;2023-07-31T00:22:55;2.85;;;1.77;;
55647;SDS011;45266;48.756;9.246;2023-07-31T00:24:06;4.70;;;2.17;;
55647;SDS011;45266;48.756;9.246;2023-07-31T00:25:14;6.03;;;2.08;;
55647;SDS011;45266;48.756;9.246;2023-07-31T00:26:27;3.05;;;1.90;;
55647;SDS011;45266;48.756;9.246;2023-07-31T00:27:37;3.67;;;2.28;;
55647;SDS011;45266;48.756;9.246;2023-07-31T00:28:41;2.80;;;1.80;;
55647;SDS011;45266;48.756;9.246;2023-07-31T00:29:43;4.20;;;2.15;;
55647;SDS011;45266;48.756;9.246;2023-07-31T00:30:48;3.50;;;2.28;;
55647;SDS011;45266;48.756;9.246;2023-07-31T00:31:57;2.10;;;1.75;;
55647;SDS011;45266;48.756;9.246;2023-07-31T00:33:00;4.90;;;2.33;;
55647;SDS011;45266;48.756;9.246;2023-07-31T00:34:05;3.08;;;1.85;;
55647;SDS011;45266;48.756;9.246;2023-07-31T00:35:07;3.58;;;2.10;;
55647;SDS011;45266;48.756;9.246;2023-07-31T00:36:10;3.33;;;2.05;;
55647;SDS011;45266;48.756;9.246;2023-07-31T00:37:12;5.20;;;2.08;;
55647;SDS011;45266;48.756;9.246;2023-07-31T00:38:18;4.07;;;2.30;;
55647;SDS011;45266;48.756;9.246;2023-07-31T00:39:34;5.88;;;2.35;;
55647;SDS011;45266;48.756;9.246;2023-07-31T00:40:37;4.57;;;2.40;;
55647;SDS011;45266;48.756;9.246;2023-07-31T00:41:39;3.25;;;2.30;;
55647;SDS011;45266;48.756;9.246;2023-07-31T00:42:43;4.38;;;2.20;;
55647;SDS011;45266;48.756;9.246;2023-07-31T00:43:51;4.65;;;2.08;;
55647;SDS011;45266;48.756;9.246;2023-07-31T00:45:01;5.38;;;2.08;;
55647;SDS011;45266;48.756;9.246;2023-07-31T00:46:08;5.72;;;2.38;;
55647;SDS011;45266;48.756;9.246;2023-07-31T00:47:24;3.65;;;2.28;;
55647;SDS011;45266;48.756;9.246;2023-07-31T00:48:26;2.72;;;2.00;;
55647;SDS011;45266;48.756;9.246;2023-07-31T00:49:28;5.63;;;2.55;;
55647;SDS011;45266;48.756;9.246;2023-07-31T00:50:30;3.03;;;2.15;;
55647;SDS011;45266;48.756;9.246;2023-07-31T00:51:33;3.63;;;2.10;;
55647;SDS011;45266;48.756;9.246;2023-07-31T00:52:39;2.17;;;1.98;;
55647;SDS011;45266;48.756;9.246;2023-07-31T00:53:46;6.50;;;2.88;;
55647;SDS011;45266;48.756;9.246;2023-07-31T00:54:51;3.17;;;2.10;;
55647;SDS011;45266;48.756;9.246;2023-07-31T00:55:55;4.55;;;2.08;;
55647;SDS011;45266;48.756;9.246;2023-07-31T00:57:00;3.38;;;2.30;;
55647;SDS011;45266;48.756;9.246;2023-07-31T00:58:04;3.53;;;1.92;;
55647;SDS011;45266;48.756;9.246;2023-07-31T00:59:16;3.05;;;1.90;;
55647;SDS011;45266;48.756;9.246;2023-07-31T01:00:20;2.75;;;1.92;;
55647;SDS011;45266;48.756;9.246;2023-07-31T01:01:28;3.40;;;1.90;;
55647;SDS011;45266;48.756;9.246;2023-07-31T01:02:32;5.45;;;1.90;;
55647;SDS011;45266;48.756;9.246;2023-07-31T01:03:34;4.07;;;1.80;;
55647;SDS011;45266;48.756;9.246;2023-07-31T01:04:36;4.05;;;2.25;;
55647;SDS011;45266;48.756;9.246;2023-07-31T01:05:42;4.32;;;2.05;;
55647;SDS011;45266;48.756;9.246;2023-07-31T01:07:22;7.45;;;2.45;;
55647;SDS011;45266;48.756;9.246;2023-07-31T01:11:17;3.88;;;1.95;;
55647;SDS011;45266;48.756;9.246;2023-07-31T01:12:48;3.78;;;2.03;;
55647;SDS011;45266;48.756;9.246;2023-07-31T01:13:55;2.35;;;1.77;;
55647;SDS011;45266;48.756;9.246;2023-07-31T01:15:06;4.40;;;2.00;;
55647;SDS011;45266;48.756;9.246;2023-07-31T01:16:19;2.53;;;2.30;;
55647;SDS011;45266;48.756;9.246;2023-07-31T01:17:25;10.75;;;2.65;;
55647;SDS011;45266;48.756;9.246;2023-07-31T01:18:30;5.30;;;2.13;;
55647;SDS011;45266;48.756;9.246;2023-07-31T01:19:37;5.22;;;1.83;;
55647;SDS011;45266;48.756;9.246;2023-07-31T01:20:42;4.10;;;2.10;;
55647;SDS011;45266;48.756;9.246;2023-07-31T01:26:11;6.93;;;2.28;;
55647;SDS011;45266;48.756;9.246;2023-07-31T01:27:21;4.90;;;2.30;;
55647;SDS011;45266;48.756;9.246;2023-07-31T01:30:28;4.53;;;2.00;;
55647;SDS011;45266;48.756;9.246;2023-07-31T01:31:46;2.67;;;2.10;;
55647;SDS011;45266;48.756;9.246;2023-07-31T01:32:53;6.53;;;2.35;;
55647;SDS011;45266;48.756;9.246;2023-07-31T01:34:00;3.92;;;2.00;;
55647;SDS011;45266;48.756;9.246;2023-07-31T01:35:08;4.80;;;1.80;;
55647;SDS011;45266;48.756;9.246;2023-07-31T01:36:11;4.30;;;2.20;;
55647;SDS011;45266;48.756;9.246;2023-07-31T01:37:18;3.67;;;2.40;;
55647;SDS011;45266;48.756;9.246;2023-07-31T01:38:28;6.13;;;2.28;;
55647;SDS011;45266;48.756;9.246;2023-07-31T01:39:37;3.38;;;2.10;;
55647;SDS011;45266;48.756;9.246;2023-07-31T01:40:41;3.78;;;2.20;;
55647;SDS011;45266;48.756;9.246;2023-07-31T01:41:44;5.43;;;2.00;;
55647;SDS011;45266;48.756;9.246;2023-07-31T01:42:49;5.93;;;2.20;;
55647;SDS011;45266;48.756;9.246;2023-07-31T01:43:57;2.35;;;1.80;;
55647;SDS011;45266;48.756;9.246;2023-07-31T01:44:59;4.13;;;2.25;;
55647;SDS011;45266;48.756;9.246;2023-07-31T01:46:02;3.13;;;2.15;;
55647;SDS011;45266;48.756;9.246;2023-07-31T01:47:05;2.80;;;2.20;;
55647;SDS011;45266;48.756;9.246;2023-07-31T01:48:09;4.82;;;2.45;;
55647;SDS011;45266;48.756;9.246;2023-07-31T01:49:11;5.63;;;2.10;;
55647;SDS011;45266;48.756;9.246;2023-07-31T01:50:14;7.78;;;2.30;;
55647;SDS011;45266;48.756;9.246;2023-07-31T01:51:17;3.28;;;2.22;;
55647;SDS011;45266;48.756;9.246;2023-07-31T01:52:23;2.97;;;1.90;;
55647;SDS011;45266;48.756;9.246;2023-07-31T01:53:32;2.97;;;2.08;;
55647;SDS011;45266;48.756;9.246;2023-07-31T01:54:38;2.75;;;2.08;;
55647;SDS011;45266;48.756;9.246;2023-07-31T01:55:40;7.57;;;2.25;;
55647;SDS011;45266;48.756;9.246;2023-07-31T01:56:43;4.07;;;1.98;;
55647;SDS011;45266;48.756;9.246;2023-07-31T01:57:48;3.03;;;2.20;;
55647;SDS011;45266;48.756;9.246;2023-07-31T01:58:50;6.03;;;2.22;;
55647;SDS011;45266;48.756;9.246;2023-07-31T02:00:05;4.70;;;2.15;;
55647;SDS011;45266;48.756;9.246;2023-07-31T02:01:09;4.60;;;2.20;;
55647;SDS011;45266;48.756;9.246;2023-07-31T02:02:38;7.20;;;2.10;;
55647;SDS011;45266;48.756;9.246;2023-07-31T02:03:40;2.63;;;2.20;;
55647;SDS011;45266;48.756;9.246;2023-07-31T02:04:44;3.50;;;2.40;;
55647;SDS011;45266;48.756;9.246;2023-07-31T02:05:48;4.32;;;2.50;;
55647;SDS011;45266;48.756;9.246;2023-07-31T02:06:57;3.10;;;2.17;;
55647;SDS011;45266;48.756;9.246;2023-07-31T02:08:06;5.35;;;2.10;;
55647;SDS011;45266;48.756;9.246;2023-07-31T02:09:14;6.10;;;1.90;;
55647;SDS011;45266;48.756;9.246;2023-07-31T02:10:18;3.97;;;2.10;;
55647;SDS011;45266;48.756;9.246;2023-07-31T02:11:27;8.25;;;2.63;;
55647;SDS011;45266;48.756;9.246;2023-07-31T02:12:30;4.25;;;2.40;;
55647;SDS011;45266;48.756;9.246;2023-07-31T02:13:36;4.38;;;2.30;;
55647;SDS011;45266;48.756;9.246;2023-07-31T02:14:38;5.60;;;2.13;;
55647;SDS011;45266;48.756;9.246;2023-07-31T02:15:42;4.00;;;2.05;;
55647;SDS011;45266;48.756;9.246;2023-07-31T02:16:51;2.70;;;2.00;;
55647;SDS011;45266;48.756;9.246;2023-07-31T02:17:53;3.72;;;2.15;;
55647;SDS011;45266;48.756;9.246;2023-07-31T02:18:59;4.43;;;2.10;;
55647;SDS011;45266;48.756;9.246;2023-07-31T02:20:02;2.42;;;1.77;;
55647;SDS011;45266;48.756;9.246;2023-07-31T02:21:06;4.72;;;2.10;;
55647;SDS011;45266;48.756;9.246;2023-07-31T02:22:09;3.90;;;2.22;;
55647;SDS011;45266;48.756;9.246;2023-07-31T02:23:11;3.03;;;2.10;;
55647;SDS011;45266;48.756;9.246;2023-07-31T02:24:23;4.82;;;2.30;;
55647;SDS011;45266;48.756;9.246;2023-07-31T02:25:26;5.57;;;2.45;;
55647;SDS011;45266;48.756;9.246;2023-07-31T02:26:28;4.95;;;2.42;;
55647;SDS011;45266;48.756;9.246;2023-07-31T02:27:31;2.95;;;2.20;;
55647;SDS011;45266;48.756;9.246;2023-07-31T02:28:35;4.35;;;2.30;;
55647;SDS011;45266;48.756;9.246;2023-07-31T02:29:39;3.28;;;2.30;;
55647;SDS011;45266;48.756;9.246;2023-07-31T02:30:43;5.18;;;2.15;;
55647;SDS011;45266;48.756;9.246;2023-07-31T02:31:48;5.93;;;2.45;;
55647;SDS011;45266;48.756;9.246;2023-07-31T02:32:52;4.38;;;2.33;;
55647;SDS011;45266;48.756;9.246;2023-07-31T02:33:56;2.97;;;2.33;;
55647;SDS011;45266;48.756;9.246;2023-07-31T02:34:59;5.75;;;2.30;;
55647;SDS011;45266;48.756;9.246;2023-07-31T02:36:02;5.50;;;2.60;;
55647;SDS011;45266;48.756;9.246;2023-07-31T02:37:05;4.80;;;2.60;;
55647;SDS011;45266;48.756;9.246;2023-07-31T02:38:08;3.65;;;2.65;;
55647;SDS011;45266;48.756;9.246;2023-07-31T02:39:16;4.90;;;2.97;;
55647;SDS011;45266;48.756;9.246;2023-07-31T02:40:20;3.80;;;2.38;;
55647;SDS011;45266;48.756;9.246;2023-07-31T02:41:23;2.83;;;2.08;;
55647;SDS011;45266;48.756;9.246;2023-07-31T02:42:26;2.50;;;2.03;;
55647;SDS011;45266;48.756;9.246;2023-07-31T02:43:32;5.03;;;2.45;;
55647;SDS011;45266;48.756;9.246;2023-07-31T02:45:59;3.75;;;2.40;;
55647;SDS011;45266;48.756;9.246;2023-07-31T02:47:01;4.65;;;2.50;;
55647;SDS011;45266;48.756;9.246;2023-07-31T02:48:04;4.40;;;2.35;;
55647;SDS011;45266;48.756;9.246;2023-07-31T02:49:06;6.43;;;2.45;;
55647;SDS011;45266;48.756;9.246;2023-07-31T02:50:10;4.20;;;2.47;;
55647;SDS011;45266;48.756;9.246;2023-07-31T02:51:19;3.20;;;2.30;;
55647;SDS011;45266;48.756;9.246;2023-07-31T02:52:28;3.47;;;2.22;;
55647;SDS011;45266;48.756;9.246;2023-07-31T02:53:36;4.40;;;2.58;;
55647;SDS011;45266;48.756;9.246;2023-07-31T02:54:38;4.85;;;2.67;;
55647;SDS011;45266;48.756;9.246;2023-07-31T02:55:42;5.30;;;2.67;;
55647;SDS011;45266;48.756;9.246;2023-07-31T02:56:47;4.68;;;2.10;;
55647;SDS011;45266;48.756;9.246;2023-07-31T02:57:51;6.40;;;2.17;;
55647;SDS011;45266;48.756;9.246;2023-07-31T02:58:54;3.60;;;1.95;;
55647;SDS011;45266;48.756;9.246;2023-07-31T02:59:56;4.07;;;2.28;;
55647;SDS011;45266;48.756;9.246;2023-07-31T03:00:58;5.07;;;2.25;;
55647;SDS011;45266;48.756;9.246;2023-07-31T03:02:02;2.92;;;2.13;;
55647;SDS011;45266;48.756;9.246;2023-07-31T03:03:08;4.13;;;2.50;;
55647;SDS011;45266;48.756;9.246;2023-07-31T03:04:10;6.63;;;2.67;;
55647;SDS011;45266;48.756;9.246;2023-07-31T03:05:13;4.47;;;2.35;;
55647;SDS011;45266;48.756;9.246;2023-07-31T03:06:15;6.50;;;2.20;;
55647;SDS011;45266;48.756;9.246;2023-07-31T03:07:17;4.05;;;2.40;;
55647;SDS011;45266;48.756;9.246;2023-07-31T03:08:19;4.50;;;2.88;;
55647;SDS011;45266;48.756;9.246;2023-07-31T03:09:23;4.75;;;2.30;;
55647;SDS011;45266;48.756;9.246;2023-07-31T03:10:32;6.13;;;2.60;;
55647;SDS011;45266;48.756;9.246;2023-07-31T03:11:41;4.10;;;2.40;;
55647;SDS011;45266;48.756;9.246;2023-07-31T03:12:47;4.63;;;2.70;;
55647;SDS011;45266;48.756;9.246;2023-07-31T03:13:50;5.25;;;2.55;;
55647;SDS011;45266;48.756;9.246;2023-07-31T03:14:54;6.10;;;2.80;;
55647;SDS011;45266;48.756;9.246;2023-07-31T03:15:56;5.20;;;2.50;;
55647;SDS011;45266;48.756;9.246;2023-07-31T03:16:59;5.45;;;2.08;;
55647;SDS011;45266;48.756;9.246;2023-07-31T03:18:09;3.17;;;2.28;;
55647;SDS011;45266;48.756;9.246;2023-07-31T03:19:20;5.60;;;2.45;;
55647;SDS011;45266;48.756;9.246;2023-07-31T03:20:30;4.32;;;2.38;;
55647;SDS011;45266;48.756;9.246;2023-07-31T03:21:32;5.60;;;2.80;;
55647;SDS011;45266;48.756;9.246;2023-07-31T03:22:36;7.28;;;2.42;;
55647;SDS011;45266;48.756;9.246;2023-07-31T03:23:39;5.18;;;2.78;;
55647;SDS011;45266;48.756;9.246;2023-07-31T03:24:41;5.13;;;2.60;;
55647;SDS011;45266;48.756;9.246;2023-07-31T03:26:07;5.03;;;2.40;;
55647;SDS011;45266;48.756;9.246;2023-07-31T03:27:11;4.55;;;2.40;;
55647;SDS011;45266;48.756;9.246;2023-07-31T03:28:15;4.20;;;2.33;;
55647;SDS011;45266;48.756;9.246;2023-07-31T03:29:19;11.07;;;2.75;;
55647;SDS011;45266;48.756;9.246;2023-07-31T03:30:25;4.85;;;2.17;;
55647;SDS011;45266;48.756;9.246;2023-07-31T03:31:32;4.85;;;2.65;;
55647;SDS011;45266;48.756;9.246;2023-07-31T03:32:37;6.85;;;2.50;;
55647;SDS011;45266;48.756;9.246;2023-07-31T03:33:39;6.88;;;2.55;;
55647;SDS011;45266;48.756;9.246;2023-07-31T03:34:41;4.43;;;2.75;;
55647;SDS011;45266;48.756;9.246;2023-07-31T03:35:44;7.40;;;2.28;;
55647;SDS011;45266;48.756;9.246;2023-07-31T03:36:47;3.65;;;2.28;;
55647;SDS011;45266;48.756;9.246;2023-07-31T03:37:49;4.50;;;2.50;;
55647;SDS011;45266;48.756;9.246;2023-07-31T03:38:52;11.63;;;2.83;;
55647;SDS011;45266;48.756;9.246;2023-07-31T03:39:58;5.60;;;2.88;;
55647;SDS011;45266;48.756;9.246;2023-07-31T03:41:01;6.53;;;2.65;;
55647;SDS011;45266;48.756;9.246;2023-07-31T03:42:04;7.35;;;2.72;;
55647;SDS011;45266;48.756;9.246;2023-07-31T03:43:17;5.35;;;2.53;;
55647;SDS011;45266;48.756;9.246;2023-07-31T03:44:31;3.53;;;2.58;;
55647;SDS011;45266;48.756;9.246;2023-07-31T03:45:39;4.82;;;2.40;;
55647;SDS011;45266;48.756;9.246;2023-07-31T03:46:42;9.10;;;2.58;;
55647;SDS011;45266;48.756;9.246;2023-07-31T03:48:15;3.25;;;2.25;;
55647;SDS011;45266;48.756;9.246;2023-07-31T03:49:41;4.25;;;2.40;;
55647;SDS011;45266;48.756;9.246;2023-07-31T03:50:46;7.35;;;2.75;;
55647;SDS011;45266;48.756;9.246;2023-07-31T03:51:58;6.60;;;2.55;;
55647;SDS011;45266;48.756;9.246;2023-07-31T03:53:04;5.45;;;2.35;;
55647;SDS011;45266;48.756;9.246;2023-07-31T03:54:31;3.97;;;2.50;;
55647;SDS011;45266;48.756;9.246;2023-07-31T03:55:34;4.88;;;2.80;;
55647;SDS011;45266;48.756;9.246;2023-07-31T03:56:39;3.78;;;2.47;;
55647;SDS011;45266;48.756;9.246;2023-07-31T03:58:07;4.40;;;2.50;;
55647;SDS011;45266;48.756;9.246;2023-07-31T03:59:24;4.18;;;2.40;;
55647;SDS011;45266;48.756;9.246;2023-07-31T04:00:27;5.53;;;2.55;;
55647;SDS011;45266;48.756;9.246;2023-07-31T04:01:29;5.47;;;2.50;;
55647;SDS011;45266;48.756;9.246;2023-07-31T04:02:35;4.85;;;2.40;;
55647;SDS011;45266;48.756;9.246;2023-07-31T04:04:02;3.67;;;2.50;;
55647;SDS011;45266;48.756;9.246;2023-07-31T04:05:14;6.03;;;2.40;;
55647;SDS011;45266;48.756;9.246;2023-07-31T04:06:22;4.72;;;2.25;;
55647;SDS011;45266;48.756;9.246;2023-07-31T04:07:26;5.40;;;2.65;;
55647;SDS011;45266;48.756;9.246;2023-07-31T04:08:28;4.65;;;2.40;;
55647;SDS011;45266;48.756;9.246;2023-07-31T04:09:33;6.22;;;2.78;;
55647;SDS011;45266;48.756;9.246;2023-07-31T04:10:49;7.00;;;2.75;;
55647;SDS011;45266;48.756;9.246;2023-07-31T04:12:00;5.05;;;2.58;;
55647;SDS011;45266;48.756;9.246;2023-07-31T04:13:15;4.60;;;2.47;;
55647;SDS011;45266;48.756;9.246;2023-07-31T04:14:29;5.93;;;3.20;;
55647;SDS011;45266;48.756;9.246;2023-07-31T04:15:38;4.47;;;3.10;;
55647;SDS011;45266;48.756;9.246;2023-07-31T04:16:52;4.32;;;2.70;;
55647;SDS011;45266;48.756;9.246;2023-07-31T04:17:59;6.95;;;2.55;;
55647;SDS011;45266;48.756;9.246;2023-07-31T04:19:01;4.93;;;2.88;;
55647;SDS011;45266;48.756;9.246;2023-07-31T04:20:05;4.75;;;2.72;;
55647;SDS011;45266;48.756;9.246;2023-07-31T04:21:07;5.15;;;3.00;;
55647;SDS011;45266;48.756;9.246;2023-07-31T04:22:09;5.00;;;3.03;;
55647;SDS011;45266;48.756;9.246;2023-07-31T04:23:11;4.93;;;2.78;;
55647;SDS011;45266;48.756;9.246;2023-07-31T04:24:14;3.97;;;2.63;;
55647;SDS011;45266;48.756;9.246;2023-07-31T04:25:16;5.30;;;2.70;;
55647;SDS011;45266;48.756;9.246;2023-07-31T04:26:18;7.75;;;2.95;;
55647;SDS011;45266;48.756;9.246;2023-07-31T04:27:30;4.18;;;2.83;;
55647;SDS011;45266;48.756;9.246;2023-07-31T04:28:37;5.38;;;2.78;;
55647;SDS011;45266;48.756;9.246;2023-07-31T04:29:51;7.03;;;3.00;;
55647;SDS011;45266;48.756;9.246;2023-07-31T04:30:53;5.25;;;3.00;;
55647;SDS011;45266;48.756;9.246;2023-07-31T04:31:56;4.13;;;2.95;;
55647;SDS011;45266;48.756;9.246;2023-07-31T04:32:58;7.18;;;2.90;;
55647;SDS011;45266;48.756;9.246;2023-07-31T04:34:00;3.65;;;2.78;;
55647;SDS011;45266;48.756;9.246;2023-07-31T04:35:04;5.68;;;2.90;;
55647;SDS011;45266;48.756;9.246;2023-07-31T04:36:06;5.60;;;3.03;;
55647;SDS011;45266;48.756;9.246;2023-07-31T04:37:08;5.10;;;2.95;;
55647;SDS011;45266;48.756;9.246;2023-07-31T04:38:11;4.28;;;2.65;;
55647;SDS011;45266;48.756;9.246;2023-07-31T04:39:13;4.50;;;3.17;;
55647;SDS011;45266;48.756;9.246;2023-07-31T04:40:22;3.38;;;3.05;;
55647;SDS011;45266;48.756;9.246;2023-07-31T04:41:28;4.18;;;2.90;;
55647;SDS011;45266;48.756;9.246;2023-07-31T04:42:32;4.78;;;3.05;;
55647;SDS011;45266;48.756;9.246;2023-07-31T04:43:34;3.28;;;2.70;;
55647;SDS011;45266;48.756;9.246;2023-07-31T04:44:37;4.25;;;2.67;;
55647;SDS011;45266;48.756;9.246;2023-07-31T04:45:50;8.70;;;2.70;;
55647;SDS011;45266;48.756;9.246;2023-07-31T04:47:10;5.32;;;2.97;;
55647;SDS011;45266;48.756;9.246;2023-07-31T04:48:14;3.70;;;2.47;;
55647;SDS011;45266;48.756;9.246;2023-07-31T04:49:18;5.97;;;3.28;;
55647;SDS011;45266;48.756;9.246;2023-07-31T04:50:24;4.32;;;2.85;;
55647;SDS011;45266;48.756;9.246;2023-07-31T04:51:30;4.55;;;3.00;;
55647;SDS011;45266;48.756;9.246;2023-07-31T04:52:34;5.10;;;3.00;;
55647;SDS011;45266;48.756;9.246;2023-07-31T04:53:39;4.97;;;2.88;;
55647;SDS011;45266;48.756;9.246;2023-07-31T04:54:45;4.55;;;2.65;;
55647;SDS011;45266;48.756;9.246;2023-07-31T04:55:48;4.00;;;2.45;;
55647;SDS011;45266;48.756;9.246;2023-07-31T04:56:54;6.47;;;3.20;;
55647;SDS011;45266;48.756;9.246;2023-07-31T04:57:59;6.93;;;3.08;;
55647;SDS011;45266;48.756;9.246;2023-07-31T04:59:05;4.63;;;2.72;;
55647;SDS011;45266;48.756;9.246;2023-07-31T05:00:07;6.05;;;2.95;;
55647;SDS011;45266;48.756;9.246;2023-07-31T05:01:11;9.32;;;3.13;;
55647;SDS011;45266;48.756;9.246;2023-07-31T05:02:34;3.72;;;2.80;;
55647;SDS011;45266;48.756;9.246;2023-07-31T05:03:37;9.88;;;2.80;;
55647;SDS011;45266;48.756;9.246;2023-07-31T05:04:40;3.25;;;2.80;;
55647;SDS011;45266;48.756;9.246;2023-07-31T05:05:42;4.75;;;3.00;;
55647;SDS011;45266;48.756;9.246;2023-07-31T05:06:44;4.00;;;2.60;;
55647;SDS011;45266;48.756;9.246;2023-07-31T05:07:49;3.33;;;2.53;;
55647;SDS011;45266;48.756;9.246;2023-07-31T05:08:51;5.50;;;2.72;;
55647;SDS011;45266;48.756;9.246;2023-07-31T05:09:54;6.78;;;2.97;;
55647;SDS011;45266;48.756;9.246;2023-07-31T05:11:02;3.65;;;2.72;;
55647;SDS011;45266;48.756;9.246;2023-07-31T05:12:05;4.85;;;2.63;;
55647;SDS011;45266;48.756;9.246;2023-07-31T05:13:10;7.75;;;2.85;;
55647;SDS011;45266;48.756;9.246;2023-07-31T05:14:13;4.07;;;2.65;;
55647;SDS011;45266;48.756;9.246;2023-07-31T05:15:26;3.95;;;2.85;;
55647;SDS011;45266;48.756;9.246;2023-07-31T05:16:39;5.03;;;2.80;;
55647;SDS011;45266;48.756;9.246;2023-07-31T05:17:50;3.53;;;2.75;;
55647;SDS011;45266;48.756;9.246;2023-07-31T05:18:59;5.22;;;3.17;;
55647;SDS011;45266;48.756;9.246;2023-07-31T05:20:01;3.03;;;2.53;;
55647;SDS011;45266;48.756;9.246;2023-07-31T05:21:04;6.22;;;2.95;;
55647;SDS011;45266;48.756;9.246;2023-07-31T05:22:08;5.18;;;2.95;;
55647;SDS011;45266;48.756;9.246;2023-07-31T05:23:18;4.50;;;2.65;;
55647;SDS011;45266;48.756;9.246;2023-07-31T05:24:24;4.47;;;2.95;;
55647;SDS011;45266;48.756;9.246;2023-07-31T05:25:29;3.97;;;2.90;;
55647;SDS011;45266;48.756;9.246;2023-07-31T05:26:33;5.80;;;3.17;;
55647;SDS011;45266;48.756;9.246;2023-07-31T05:27:43;6.68;;;3.13;;
55647;SDS011;45266;48.756;9.246;2023-07-31T05:28:53;6.45;;;2.60;;
55647;SDS011;45266;48.756;9.246;2023-07-31T05:30:02;5.43;;;2.90;;
55647;SDS011;45266;48.756;9.246;2023-07-31T05:31:08;5.57;;;2.80;;
55647;SDS011;45266;48.756;9.246;2023-07-31T05:32:13;6.05;;;2.90;;
55647;SDS011;45266;48.756;9.246;2023-07-31T05:33:18;4.57;;;2.67;;
55647;SDS011;45266;48.756;9.246;2023-07-31T05:34:25;5.13;;;2.92;;
55647;SDS011;45266;48.756;9.246;2023-07-31T05:35:31;4.13;;;2.58;;
55647;SDS011;45266;48.756;9.246;2023-07-31T05:36:41;3.13;;;2.30;;
55647;SDS011;45266;48.756;9.246;2023-07-31T05:37:50;5.93;;;2.70;;
55647;SDS011;45266;48.756;9.246;2023-07-31T05:39:03;3.28;;;2.55;;
55647;SDS011;45266;48.756;9.246;2023-07-31T05:40:14;2.85;;;2.25;;
55647;SDS011;45266;48.756;9.246;2023-07-31T05:41:17;4.55;;;2.53;;
55647;SDS011;45266;48.756;9.246;2023-07-31T05:42:20;4.40;;;2.38;;
55647;SDS011;45266;48.756;9.246;2023-07-31T05:43:24;4.13;;;2.63;;
55647;SDS011;45266;48.756;9.246;2023-07-31T05:44:38;4.50;;;2.75;;
55647;SDS011;45266;48.756;9.246;2023-07-31T05:45:45;5.20;;;2.67;;
55647;SDS011;45266;48.756;9.246;2023-07-31T05:46:51;5.93;;;2.83;;
55647;SDS011;45266;48.756;9.246;2023-07-31T05:47:56;3.97;;;2.55;;
55647;SDS011;45266;48.756;9.246;2023-07-31T05:49:00;3.83;;;2.50;;
55647;SDS011;45266;48.756;9.246;2023-07-31T05:50:03;4.55;;;2.17;;
55647;SDS011;45266;48.756;9.246;2023-07-31T05:51:08;5.40;;;2.40;;
55647;SDS011;45266;48.756;9.246;2023-07-31T05:52:13;4.32;;;2.28;;
55647;SDS011;45266;48.756;9.246;2023-07-31T05:53:30;7.65;;;2.08;;
55647;SDS011;45266;48.756;9.246;2023-07-31T05:54:50;5.03;;;2.08;;
55647;SDS011;45266;48.756;9.246;2023-07-31T05:56:05;4.35;;;2.20;;
55647;SDS011;45266;48.756;9.246;2023-07-31T05:57:25;5.18;;;2.38;;
55647;SDS011;45266;48.756;9.246;2023-07-31T05:58:37;4.65;;;2.00;;
55647;SDS011;45266;48.756;9.246;2023-07-31T05:59:46;3.92;;;2.00;;
55647;SDS011;45266;48.756;9.246;2023-07-31T06:00:51;3.78;;;1.90;;
55647;SDS011;45266;48.756;9.246;2023-07-31T06:01:56;2.47;;;1.92;;
55647;SDS011;45266;48.756;9.246;2023-07-31T06:03:03;5.45;;;1.90;;
55647;SDS011;45266;48.756;9.246;2023-07-31T06:04:22;1.90;;;1.60;;
55647;SDS011;45266;48.756;9.246;2023-07-31T06:05:31;4.45;;;1.92;;
55647;SDS011;45266;48.756;9.246;2023-07-31T06:06:34;2.17;;;1.60;;
55647;SDS011;45266;48.756;9.246;2023-07-31T06:07:43;4.72;;;1.67;;
55647;SDS011;45266;48.756;9.246;2023-07-31T06:08:52;5.53;;;2.08;;
55647;SDS011;45266;48.756;9.246;2023-07-31T06:09:54;4.70;;;2.50;;
55647;SDS011;45266;48.756;9.246;2023-07-31T06:10:56;3.30;;;1.73;;
55647;SDS011;45266;48.756;9.246;2023-07-31T06:11:59;4.18;;;2.80;;
55647;SDS011;45266;48.756;9.246;2023-07-31T06:13:04;2.70;;;1.65;;
55647;SDS011;45266;48.756;9.246;2023-07-31T06:14:06;3.40;;;2.67;;
55647;SDS011;45266;48.756;9.246;2023-07-31T06:15:08;4.60;;;2.28;;
55647;SDS011;45266;48.756;9.246;2023-07-31T06:16:11;4.90;;;2.03;;
55647;SDS011;45266;48.756;9.246;2023-07-31T06:17:15;3.97;;;1.95;;
55647;SDS011;45266;48.756;9.246;2023-07-31T06:18:25;3.08;;;1.85;;
55647;SDS011;45266;48.756;9.246;2023-07-31T06:19:27;8.57;;;2.72;;
55647;SDS011;45266;48.756;9.246;2023-07-31T06:20:34;5.45;;;2.30;;
55647;SDS011;45266;48.756;9.246;2023-07-31T06:21:51;3.30;;;1.92;;
55647;SDS011;45266;48.756;9.246;2023-07-31T06:23:07;2.72;;;1.83;;
55647;SDS011;45266;48.756;9.246;2023-07-31T06:24:22;5.97;;;2.00;;
55647;SDS011;45266;48.756;9.246;2023-07-31T06:25:27;2.63;;;1.92;;
55647;SDS011;45266;48.756;9.246;2023-07-31T06:26:36;3.13;;;2.08;;
55647;SDS011;45266;48.756;9.246;2023-07-31T06:27:48;4.13;;;2.22;;
55647;SDS011;45266;48.756;9.246;2023-07-31T06:28:58;3.20;;;2.13;;
55647;SDS011;45266;48.756;9.246;2023-07-31T06:30:03;4.57;;;2.25;;
55647;SDS011;45266;48.756;9.246;2023-07-31T06:31:06;4.10;;;1.70;;
55647;SDS011;45266;48.756;9.246;2023-07-31T06:32:10;2.63;;;2.22;;
55647;SDS011;45266;48.756;9.246;2023-07-31T06:33:23;9.43;;;2.42;;
55647;SDS011;45266;48.756;9.246;2023-07-31T06:34:35;4.82;;;1.85;;
55647;SDS011;45266;48.756;9.246;2023-07-31T06:35:49;6.32;;;1.98;;
55647;SDS011;45266;48.756;9.246;2023-07-31T06:36:55;5.90;;;2.22;;
55647;SDS011;45266;48.756;9.246;2023-07-31T06:38:05;4.65;;;1.80;;
55647;SDS011;45266;48.756;9.246;2023-07-31T06:39:15;4.78;;;1.55;;
55647;SDS011;45266;48.756;9.246;2023-07-31T06:40:25;4.28;;;1.80;;
55647;SDS011;45266;48.756;9.246;2023-07-31T06:41:29;3.30;;;1.80;;
55647;SDS011;45266;48.756;9.246;2023-07-31T06:42:32;4.20;;;1.30;;
55647;SDS011;45266;48.756;9.246;2023-07-31T06:43:34;3.95;;;1.77;;
55647;SDS011;45266;48.756;9.246;2023-07-31T06:44:43;2.80;;;1.90;;
55647;SDS011;45266;48.756;9.246;2023-07-31T06:46:00;4.82;;;2.17;;
55647;SDS011;45266;48.756;9.246;2023-07-31T06:47:12;4.53;;;2.05;;
55647;SDS011;45266;48.756;9.246;2023-07-31T06:48:18;2.47;;;1.67;;
55647;SDS011;45266;48.756;9.246;2023-07-31T06:49:30;3.28;;;1.80;;
55647;SDS011;45266;48.756;9.246;2023-07-31T06:50:33;3.97;;;1.90;;
55647;SDS011;45266;48.756;9.246;2023-07-31T06:51:39;6.32;;;1.77;;